createdAt,value
2022-09-07T00:01:53.679Z,101490.44
2022-09-07T00:06:52.307Z,101517.28
2022-09-07T00:11:54.431Z,101529.06
2022-09-07T00:16:56.599Z,101502.59
2022-09-07T00:22:15.871Z,101509.91
2022-09-07T00:27:17.677Z,101502.97
2022-09-07T00:32:18.479Z,101545.84
2022-09-07T00:37:17.081Z,101508.16
2022-09-07T00:42:16.794Z,101503.22
2022-09-07T00:47:22.964Z,101512.53
2022-09-07T00:52:24.407Z,101511.66
2022-09-07T00:57:25.012Z,101498.72
2022-09-07T01:02:26.054Z,101515.00
2022-09-07T01:07:27.476Z,101523.75
2022-09-07T01:12:28.229Z,101505.47
2022-09-07T01:17:49.684Z,101538.72
2022-09-07T01:23:30.255Z,101511.09
2022-09-07T01:28:32.856Z,101508.03
2022-09-07T01:33:31.586Z,101538.00
2022-09-07T01:38:48.157Z,101528.50
2022-09-07T01:43:55.087Z,101538.78
2022-09-07T01:48:58.779Z,101478.13
2022-09-07T01:54:08.063Z,101504.00
2022-09-07T01:59:10.675Z,101489.00
2022-09-07T02:04:15.782Z,101528.00
2022-09-07T02:09:20.838Z,101482.41
2022-09-07T02:14:31.143Z,101522.00
2022-09-07T02:19:35.676Z,101467.03
2022-09-07T02:24:42.548Z,101493.44
2022-09-07T02:29:44.146Z,101516.88
2022-09-07T02:34:46.570Z,101506.72
2022-09-07T02:39:46.946Z,101494.94
2022-09-07T02:44:48.902Z,101507.47
2022-09-07T02:50:10.623Z,101526.53
2022-09-07T02:55:33.268Z,101526.09
2022-09-07T03:00:35.762Z,101532.22
2022-09-07T03:05:43.795Z,101478.38
2022-09-07T03:10:43.036Z,101527.28
2022-09-07T03:15:46.033Z,101495.25
2022-09-07T03:20:48.262Z,101512.13
2022-09-07T03:25:49.848Z,101521.44
2022-09-07T03:30:51.014Z,101511.22
2022-09-07T03:36:10.087Z,101495.69
2022-09-07T03:41:12.109Z,101489.84
2022-09-07T03:46:19.530Z,101514.66
2022-09-07T03:51:18.394Z,101527.84
2022-09-07T03:56:22.422Z,101507.47
2022-09-07T04:01:25.178Z,101524.75
2022-09-07T04:06:29.267Z,101533.13
2022-09-07T04:11:30.955Z,101554.63
2022-09-07T04:16:33.173Z,101532.19
2022-09-07T04:21:34.906Z,101551.13
2022-09-07T04:26:37.268Z,101555.00
2022-09-07T04:31:38.118Z,101550.97
2022-09-07T04:36:37.774Z,101590.00
2022-09-07T04:41:38.541Z,101557.84
2022-09-07T04:46:37.437Z,101587.22
2022-09-07T04:51:43.851Z,101600.47
2022-09-07T04:56:41.896Z,101604.88
2022-09-07T05:01:42.340Z,101547.59
2022-09-07T05:06:43.594Z,101568.34
2022-09-07T05:11:46.354Z,101600.69
2022-09-07T05:16:48.314Z,101576.97
2022-09-07T05:21:46.531Z,101548.13
2022-09-07T05:26:44.154Z,101575.00
2022-09-07T05:31:46.743Z,101569.88
2022-09-07T05:36:48.345Z,101564.38
2022-09-07T05:41:49.918Z,101573.47
2022-09-07T05:46:48.371Z,101562.16
2022-09-07T05:51:49.678Z,101576.38
2022-09-07T05:56:47.694Z,101549.84
2022-09-07T06:01:46.308Z,101563.38
2022-09-07T06:06:59.355Z,101570.81
2022-09-07T06:12:06.230Z,101576.31
2022-09-07T06:17:04.948Z,101563.78
2022-09-07T06:22:02.719Z,101564.50
2022-09-07T06:27:03.161Z,101555.34
2022-09-07T06:37:23.988Z,101563.00
2022-09-07T06:42:22.418Z,101584.28
2022-09-07T06:47:24.463Z,101590.84
2022-09-07T06:52:25.956Z,101575.56
2022-09-07T06:57:30.510Z,101563.75
2022-09-07T07:02:28.104Z,101594.34
2022-09-07T07:07:29.710Z,101572.13
2022-09-07T07:17:33.774Z,101581.25
2022-09-07T07:22:47.163Z,101560.31
2022-09-07T07:27:52.759Z,101597.97
2022-09-07T07:32:51.337Z,101576.72
2022-09-07T07:43:13.091Z,101561.25
2022-09-07T07:48:15.298Z,101576.06
2022-09-07T07:58:35.341Z,101596.63
2022-09-07T08:03:35.350Z,101578.44
2022-09-07T08:08:36.299Z,101624.53
2022-09-07T08:13:40.734Z,101597.91
2022-09-07T08:18:46.369Z,101625.78
2022-09-07T08:23:47.656Z,101592.66
2022-09-07T08:28:46.827Z,101586.75
2022-09-07T08:33:54.403Z,101591.38
2022-09-07T08:38:52.766Z,101593.84
2022-09-07T08:44:02.798Z,101555.13
2022-09-07T08:49:01.695Z,101564.13
2022-09-07T08:54:00.658Z,101548.28
2022-09-07T08:59:03.770Z,101556.38
2022-09-07T09:04:18.414Z,101566.94
2022-09-07T09:09:25.337Z,101573.88
2022-09-07T09:14:35.024Z,101529.31
2022-09-07T09:19:42.538Z,101520.75
2022-09-07T09:24:46.262Z,101500.59
2022-09-07T09:29:58.477Z,101515.97
2022-09-07T09:35:12.933Z,101517.22
2022-09-07T09:40:36.978Z,101504.28
2022-09-07T09:56:24.064Z,101495.38
2022-09-07T10:01:26.705Z,101498.09
2022-09-07T10:06:28.859Z,101474.50
2022-09-07T10:12:09.583Z,101480.50
2022-09-07T10:17:20.351Z,101511.19
2022-09-07T10:22:47.513Z,101455.41
2022-09-07T10:28:07.351Z,101478.72
2022-09-07T10:33:10.470Z,101438.38
2022-09-07T10:38:17.567Z,101461.59
2022-09-07T10:43:25.152Z,101463.97
2022-09-07T10:48:33.101Z,101431.13
2022-09-07T10:53:43.777Z,101435.19
2022-09-07T10:59:03.530Z,101468.09
2022-09-07T11:04:20.325Z,101452.06
2022-09-07T11:09:31.850Z,101446.81
2022-09-07T11:14:33.439Z,101444.72
2022-09-07T11:19:39.789Z,101410.66
2022-09-07T11:24:47.471Z,101440.75
2022-09-07T11:29:52.534Z,101397.56
2022-09-07T11:35:47.980Z,101400.09
2022-09-07T11:41:00.363Z,101381.09
2022-09-07T11:46:06.393Z,101397.78
2022-09-07T11:51:27.170Z,101411.72
2022-09-07T11:56:29.739Z,101377.66
2022-09-07T12:01:46.423Z,101411.88
2022-09-07T12:07:42.580Z,101407.44
2022-09-07T12:12:52.045Z,101402.94
2022-09-07T12:18:02.943Z,101394.03
2022-09-07T12:23:20.152Z,101371.56
2022-09-07T12:28:40.221Z,101359.38
2022-09-07T12:33:44.188Z,101379.13
2022-09-07T12:39:25.306Z,101385.88
2022-09-07T12:44:28.647Z,101337.88
2022-09-07T12:49:54.757Z,101377.81
2022-09-07T12:55:27.166Z,101375.41
2022-09-07T13:00:48.321Z,101326.59
2022-09-07T13:06:00.928Z,101367.66
2022-09-07T13:11:31.545Z,101365.75
2022-09-07T13:21:57.772Z,101338.38
2022-09-07T13:27:06.633Z,101339.19
2022-09-07T13:33:07.841Z,101344.03
2022-09-07T13:38:00.313Z,101339.25
2022-09-07T13:43:02.400Z,101319.84
2022-09-07T13:48:44.551Z,101353.50
2022-09-07T13:54:00.118Z,101349.28
2022-09-07T13:58:59.780Z,101316.09
2022-09-07T14:04:02.482Z,101328.91
2022-09-07T14:09:07.150Z,101327.03
2022-09-07T14:14:29.890Z,101343.25
2022-09-07T14:19:50.370Z,101324.66
2022-09-07T14:25:00.663Z,101331.16
2022-09-07T14:30:34.377Z,101312.91
2022-09-07T14:35:38.946Z,101320.09
2022-09-07T14:40:41.669Z,101315.47
2022-09-07T14:45:40.851Z,101340.97
2022-09-07T14:50:41.448Z,101325.25
2022-09-07T14:55:42.726Z,101307.75
2022-09-07T15:12:36.430Z,101283.97
2022-09-07T15:17:43.391Z,101270.53
2022-09-07T15:22:52.741Z,101301.22
2022-09-07T15:27:51.416Z,101295.03
2022-09-07T15:32:59.539Z,101282.06
2022-09-07T15:38:59.380Z,101269.88
2022-09-07T15:43:37.678Z,101259.63
2022-09-07T15:48:36.390Z,101262.84
2022-09-07T15:59:02.115Z,101245.19
2022-09-07T16:04:23.826Z,101251.00
2022-09-07T16:09:22.898Z,101274.19
2022-09-07T16:14:37.348Z,101296.03
2022-09-07T16:19:42.916Z,101251.13
2022-09-07T16:24:53.630Z,101268.84
2022-09-07T16:29:51.857Z,101267.88
2022-09-07T16:34:56.065Z,101245.75
2022-09-07T16:40:06.839Z,101245.94
2022-09-07T16:50:47.086Z,101233.91
2022-09-07T16:55:46.645Z,101251.78
2022-09-07T17:00:44.343Z,101273.75
2022-09-07T17:05:43.094Z,101261.00
2022-09-07T17:10:44.418Z,101245.97
2022-09-07T17:15:48.784Z,101255.66
2022-09-07T17:20:58.898Z,101253.38
2022-09-07T17:26:08.566Z,101264.47
2022-09-07T17:32:23.979Z,101259.44
2022-09-07T17:36:49.453Z,101254.78
2022-09-07T17:41:53.238Z,101306.56
2022-09-07T17:46:53.431Z,101315.44
2022-09-07T17:51:55.236Z,101281.00
2022-09-07T17:56:53.357Z,101326.78
2022-09-07T18:02:01.381Z,101315.63
2022-09-07T18:07:00.101Z,101304.41
2022-09-07T18:12:03.304Z,101291.28
2022-09-07T18:17:06.003Z,101298.94
2022-09-07T18:22:06.635Z,101328.34
2022-09-07T18:27:08.861Z,101327.66
2022-09-07T18:32:12.661Z,101312.56
2022-09-07T18:37:15.353Z,101343.88
2022-09-07T18:42:14.061Z,101296.59
2022-09-07T18:47:27.572Z,101297.69
2022-09-07T18:57:49.164Z,101305.88
2022-09-07T19:02:55.266Z,101336.84
2022-09-07T19:07:52.953Z,101294.22
2022-09-07T19:12:51.262Z,101279.16
2022-09-07T19:17:50.769Z,101339.31
2022-09-07T19:22:53.897Z,101333.03
2022-09-07T19:27:56.123Z,101319.97
2022-09-07T19:32:55.358Z,101329.47
2022-09-07T19:37:53.319Z,101304.00
2022-09-07T19:42:56.387Z,101303.00
2022-09-07T19:47:54.317Z,101306.56
2022-09-07T19:53:02.183Z,101284.91
2022-09-07T19:58:00.818Z,101285.19
2022-09-07T20:03:10.496Z,101284.22
2022-09-07T20:08:11.201Z,101273.03
2022-09-07T20:13:11.652Z,101288.38
2022-09-07T20:18:10.045Z,101287.47
2022-09-07T20:23:10.052Z,101280.00
2022-09-07T20:28:08.043Z,101281.47
2022-09-07T20:33:14.668Z,101316.66
2022-09-07T20:38:17.500Z,101334.28
2022-09-07T20:43:15.630Z,101289.91
2022-09-07T20:48:19.961Z,101281.44
2022-09-07T20:53:33.200Z,101336.53
2022-09-07T20:58:37.646Z,101319.53
2022-09-07T21:03:38.422Z,101317.81
2022-09-07T21:08:42.745Z,101281.75
2022-09-07T21:13:44.479Z,101310.00
2022-09-07T21:18:46.373Z,101285.53
2022-09-07T21:23:54.482Z,101314.94
2022-09-07T21:29:00.929Z,101318.41
2022-09-07T21:34:24.701Z,101329.31
2022-09-07T21:39:23.971Z,101304.78
2022-09-07T21:44:23.840Z,101297.09
2022-09-07T21:49:36.691Z,101312.88
2022-09-07T21:54:52.172Z,101287.66
2022-09-07T21:59:54.788Z,101287.91
2022-09-07T22:05:05.350Z,101318.84
2022-09-07T22:10:13.870Z,101328.13
2022-09-07T22:15:30.691Z,101312.81
2022-09-07T22:20:30.890Z,101302.16
2022-09-07T22:25:29.502Z,101305.44
2022-09-07T22:30:31.831Z,101297.16
2022-09-07T22:35:36.172Z,101305.63
2022-09-07T22:40:41.231Z,101295.97
2022-09-07T22:45:40.335Z,101324.50
2022-09-07T22:50:40.298Z,101289.31
2022-09-07T22:55:53.495Z,101312.75
2022-09-07T23:00:53.060Z,101270.91
2022-09-07T23:05:53.182Z,101319.91
2022-09-07T23:10:52.267Z,101325.81
2022-09-07T23:15:51.422Z,101309.13
2022-09-07T23:21:00.832Z,101276.66
2022-09-07T23:26:03.406Z,101273.81
2022-09-07T23:31:03.450Z,101278.44
2022-09-07T23:36:03.370Z,101278.03
2022-09-07T23:41:01.225Z,101262.53
2022-09-07T23:46:04.934Z,101296.00
2022-09-07T23:51:02.416Z,101245.69
2022-09-07T23:56:02.228Z,101275.75
